sensor_id;sensor_type;location;lat;lon;timestamp;temperature;humidity
32506;DHT22;18955;51.224;8.482;2023-05-20T00:01:20;12.60;76.70
32506;DHT22;18955;51.224;8.482;2023-05-20T00:03:47;12.50;76.40
32506;DHT22;18955;51.224;8.482;2023-05-20T00:06:13;12.50;76.50
32506;DHT22;18955;51.224;8.482;2023-05-20T00:08:39;12.40;76.50
32506;DHT22;18955;51.224;8.482;2023-05-20T00:11:05;12.40;76.60
32506;DHT22;18955;51.224;8.482;2023-05-20T00:13:31;12.40;76.60
32506;DHT22;18955;51.224;8.482;2023-05-20T00:16:00;12.30;76.50
32506;DHT22;18955;51.224;8.482;2023-05-20T00:18:27;12.40;76.80
32506;DHT22;18955;51.224;8.482;2023-05-20T00:20:53;12.30;76.50
32506;DHT22;18955;51.224;8.482;2023-05-20T00:23:20;12.30;76.80
32506;DHT22;18955;51.224;8.482;2023-05-20T00:25:46;12.30;76.70
32506;DHT22;18955;51.224;8.482;2023-05-20T00:28:12;12.20;76.60
32506;DHT22;18955;51.224;8.482;2023-05-20T00:30:39;12.20;76.80
32506;DHT22;18955;51.224;8.482;2023-05-20T00:33:08;12.20;76.60
32506;DHT22;18955;51.224;8.482;2023-05-20T00:35:34;12.10;76.90
32506;DHT22;18955;51.224;8.482;2023-05-20T00:38:01;12.10;76.90
32506;DHT22;18955;51.224;8.482;2023-05-20T00:40:27;12.10;76.60
32506;DHT22;18955;51.224;8.482;2023-05-20T00:42:53;12.10;76.80
32506;DHT22;18955;51.224;8.482;2023-05-20T00:45:20;12.10;76.80
32506;DHT22;18955;51.224;8.482;2023-05-20T00:47:46;12.00;76.70
32506;DHT22;18955;51.224;8.482;2023-05-20T00:50:12;12.00;76.90
32506;DHT22;18955;51.224;8.482;2023-05-20T00:52:39;12.00;77.00
32506;DHT22;18955;51.224;8.482;2023-05-20T00:55:06;11.90;76.90
32506;DHT22;18955;51.224;8.482;2023-05-20T00:57:33;11.90;76.80
32506;DHT22;18955;51.224;8.482;2023-05-20T00:59:59;11.90;77.00
32506;DHT22;18955;51.224;8.482;2023-05-20T01:02:25;11.90;77.00
32506;DHT22;18955;51.224;8.482;2023-05-20T01:04:52;11.90;77.00
32506;DHT22;18955;51.224;8.482;2023-05-20T01:07:20;11.80;77.00
32506;DHT22;18955;51.224;8.482;2023-05-20T01:09:46;11.80;77.00
32506;DHT22;18955;51.224;8.482;2023-05-20T01:12:17;11.80;76.90
32506;DHT22;18955;51.224;8.482;2023-05-20T01:14:53;11.80;77.00
32506;DHT22;18955;51.224;8.482;2023-05-20T01:17:22;11.70;77.00
32506;DHT22;18955;51.224;8.482;2023-05-20T01:19:54;11.70;77.00
32506;DHT22;18955;51.224;8.482;2023-05-20T01:22:28;11.70;77.00
32506;DHT22;18955;51.224;8.482;2023-05-20T01:24:54;11.60;77.00
32506;DHT22;18955;51.224;8.482;2023-05-20T01:27:22;11.60;77.30
32506;DHT22;18955;51.224;8.482;2023-05-20T01:29:49;11.60;77.00
32506;DHT22;18955;51.224;8.482;2023-05-20T01:32:42;11.60;77.00
32506;DHT22;18955;51.224;8.482;2023-05-20T01:35:10;11.50;77.00
32506;DHT22;18955;51.224;8.482;2023-05-20T01:37:38;11.50;77.10
32506;DHT22;18955;51.224;8.482;2023-05-20T01:40:15;11.50;77.00
32506;DHT22;18955;51.224;8.482;2023-05-20T01:42:44;11.50;77.10
32506;DHT22;18955;51.224;8.482;2023-05-20T01:45:11;11.50;77.10
32506;DHT22;18955;51.224;8.482;2023-05-20T01:47:37;11.50;77.20
32506;DHT22;18955;51.224;8.482;2023-05-20T01:50:04;11.40;77.10
32506;DHT22;18955;51.224;8.482;2023-05-20T01:52:31;11.40;77.20
32506;DHT22;18955;51.224;8.482;2023-05-20T01:54:57;11.40;77.30
32506;DHT22;18955;51.224;8.482;2023-05-20T01:57:23;11.40;77.20
32506;DHT22;18955;51.224;8.482;2023-05-20T01:59:52;11.30;77.10
32506;DHT22;18955;51.224;8.482;2023-05-20T02:02:18;11.30;77.10
32506;DHT22;18955;51.224;8.482;2023-05-20T02:04:47;11.30;77.20
32506;DHT22;18955;51.224;8.482;2023-05-20T02:07:17;11.30;77.20
32506;DHT22;18955;51.224;8.482;2023-05-20T02:09:45;11.30;77.30
32506;DHT22;18955;51.224;8.482;2023-05-20T02:12:11;11.20;77.30
32506;DHT22;18955;51.224;8.482;2023-05-20T02:14:43;11.20;77.30
32506;DHT22;18955;51.224;8.482;2023-05-20T02:17:10;11.20;77.30
32506;DHT22;18955;51.224;8.482;2023-05-20T02:19:36;11.20;77.40
32506;DHT22;18955;51.224;8.482;2023-05-20T02:22:05;11.20;77.40
32506;DHT22;18955;51.224;8.482;2023-05-20T02:24:31;11.10;77.30
32506;DHT22;18955;51.224;8.482;2023-05-20T02:26:57;11.10;77.30
32506;DHT22;18955;51.224;8.482;2023-05-20T02:29:24;11.10;77.40
32506;DHT22;18955;51.224;8.482;2023-05-20T02:31:50;11.10;77.40
32506;DHT22;18955;51.224;8.482;2023-05-20T02:34:17;11.10;77.50
32506;DHT22;18955;51.224;8.482;2023-05-20T02:36:44;11.10;77.50
32506;DHT22;18955;51.224;8.482;2023-05-20T02:39:10;11.00;77.50
32506;DHT22;18955;51.224;8.482;2023-05-20T02:41:37;11.00;78.10
32506;DHT22;18955;51.224;8.482;2023-05-20T02:44:04;11.00;77.60
32506;DHT22;18955;51.224;8.482;2023-05-20T02:46:30;11.00;77.60
32506;DHT22;18955;51.224;8.482;2023-05-20T02:48:58;11.00;77.60
32506;DHT22;18955;51.224;8.482;2023-05-20T02:51:24;11.00;77.60
32506;DHT22;18955;51.224;8.482;2023-05-20T02:53:50;11.00;77.60
32506;DHT22;18955;51.224;8.482;2023-05-20T02:56:17;11.00;77.60
32506;DHT22;18955;51.224;8.482;2023-05-20T02:58:47;10.90;77.50
32506;DHT22;18955;51.224;8.482;2023-05-20T03:01:14;10.90;77.60
32506;DHT22;18955;51.224;8.482;2023-05-20T03:03:40;10.90;77.70
32506;DHT22;18955;51.224;8.482;2023-05-20T03:06:07;10.90;77.70
32506;DHT22;18955;51.224;8.482;2023-05-20T03:08:33;10.90;77.70
32506;DHT22;18955;51.224;8.482;2023-05-20T03:11:00;10.90;77.80
32506;DHT22;18955;51.224;8.482;2023-05-20T03:13:27;10.90;77.80
32506;DHT22;18955;51.224;8.482;2023-05-20T03:15:53;10.80;77.70
32506;DHT22;18955;51.224;8.482;2023-05-20T03:18:19;10.80;77.60
32506;DHT22;18955;51.224;8.482;2023-05-20T03:20:46;10.80;77.70
32506;DHT22;18955;51.224;8.482;2023-05-20T03:23:12;10.80;77.70
32506;DHT22;18955;51.224;8.482;2023-05-20T03:25:39;10.80;77.70
32506;DHT22;18955;51.224;8.482;2023-05-20T03:28:05;10.80;77.80
32506;DHT22;18955;51.224;8.482;2023-05-20T03:30:34;10.80;77.80
32506;DHT22;18955;51.224;8.482;2023-05-20T03:33:01;10.80;77.80
32506;DHT22;18955;51.224;8.482;2023-05-20T03:35:28;10.70;77.80
32506;DHT22;18955;51.224;8.482;2023-05-20T03:37:55;10.70;77.80
32506;DHT22;18955;51.224;8.482;2023-05-20T03:40:23;10.70;77.80
32506;DHT22;18955;51.224;8.482;2023-05-20T03:42:49;10.70;77.80
32506;DHT22;18955;51.224;8.482;2023-05-20T03:45:18;10.70;77.80
32506;DHT22;18955;51.224;8.482;2023-05-20T03:48:04;10.70;77.80
32506;DHT22;18955;51.224;8.482;2023-05-20T03:50:32;10.70;77.80
32506;DHT22;18955;51.224;8.482;2023-05-20T03:53:00;10.70;77.80
32506;DHT22;18955;51.224;8.482;2023-05-20T03:55:28;10.70;77.80
32506;DHT22;18955;51.224;8.482;2023-05-20T03:57:54;10.70;77.90
32506;DHT22;18955;51.224;8.482;2023-05-20T04:00:21;10.70;78.00
32506;DHT22;18955;51.224;8.482;2023-05-20T04:02:48;10.70;77.90
32506;DHT22;18955;51.224;8.482;2023-05-20T04:05:17;10.70;78.00
32506;DHT22;18955;51.224;8.482;2023-05-20T04:07:43;10.60;77.90
32506;DHT22;18955;51.224;8.482;2023-05-20T04:10:12;10.60;77.90
32506;DHT22;18955;51.224;8.482;2023-05-20T04:12:38;10.60;77.90
32506;DHT22;18955;51.224;8.482;2023-05-20T04:15:06;10.60;77.90
32506;DHT22;18955;51.224;8.482;2023-05-20T04:17:40;10.60;77.80
32506;DHT22;18955;51.224;8.482;2023-05-20T04:20:08;10.60;77.80
32506;DHT22;18955;51.224;8.482;2023-05-20T04:22:36;10.60;77.90
32506;DHT22;18955;51.224;8.482;2023-05-20T04:25:04;10.60;77.90
32506;DHT22;18955;51.224;8.482;2023-05-20T04:27:32;10.50;78.00
32506;DHT22;18955;51.224;8.482;2023-05-20T04:30:04;10.60;78.10
32506;DHT22;18955;51.224;8.482;2023-05-20T04:32:33;10.50;78.00
32506;DHT22;18955;51.224;8.482;2023-05-20T04:34:59;10.60;78.00
32506;DHT22;18955;51.224;8.482;2023-05-20T04:37:27;10.60;78.10
32506;DHT22;18955;51.224;8.482;2023-05-20T04:39:54;10.50;78.00
32506;DHT22;18955;51.224;8.482;2023-05-20T04:42:20;10.50;78.00
32506;DHT22;18955;51.224;8.482;2023-05-20T04:44:47;10.50;78.00
32506;DHT22;18955;51.224;8.482;2023-05-20T04:47:14;10.50;77.90
32506;DHT22;18955;51.224;8.482;2023-05-20T04:49:40;10.50;78.00
32506;DHT22;18955;51.224;8.482;2023-05-20T04:52:07;10.50;78.00
32506;DHT22;18955;51.224;8.482;2023-05-20T04:54:33;10.50;78.00
32506;DHT22;18955;51.224;8.482;2023-05-20T04:56:59;10.50;78.00
32506;DHT22;18955;51.224;8.482;2023-05-20T04:59:26;10.50;78.10
32506;DHT22;18955;51.224;8.482;2023-05-20T05:01:52;10.50;78.30
32506;DHT22;18955;51.224;8.482;2023-05-20T05:04:18;10.50;78.00
32506;DHT22;18955;51.224;8.482;2023-05-20T05:06:47;10.50;78.10
32506;DHT22;18955;51.224;8.482;2023-05-20T05:09:14;10.50;78.10
32506;DHT22;18955;51.224;8.482;2023-05-20T05:11:42;10.50;78.00
32506;DHT22;18955;51.224;8.482;2023-05-20T05:14:08;10.50;78.10
32506;DHT22;18955;51.224;8.482;2023-05-20T05:16:35;10.50;78.10
32506;DHT22;18955;51.224;8.482;2023-05-20T05:19:01;10.50;78.00
32506;DHT22;18955;51.224;8.482;2023-05-20T05:21:30;10.50;78.00
32506;DHT22;18955;51.224;8.482;2023-05-20T05:23:57;10.50;78.10
32506;DHT22;18955;51.224;8.482;2023-05-20T05:26:23;10.50;78.20
32506;DHT22;18955;51.224;8.482;2023-05-20T05:28:49;10.50;78.10
32506;DHT22;18955;51.224;8.482;2023-05-20T05:31:15;10.40;78.00
32506;DHT22;18955;51.224;8.482;2023-05-20T05:33:42;10.40;78.10
32506;DHT22;18955;51.224;8.482;2023-05-20T05:36:08;10.40;78.20
32506;DHT22;18955;51.224;8.482;2023-05-20T05:38:34;10.50;78.10
32506;DHT22;18955;51.224;8.482;2023-05-20T05:41:01;10.50;78.10
32506;DHT22;18955;51.224;8.482;2023-05-20T05:43:28;10.50;78.20
32506;DHT22;18955;51.224;8.482;2023-05-20T05:45:56;10.50;78.10
32506;DHT22;18955;51.224;8.482;2023-05-20T05:48:22;10.50;78.20
32506;DHT22;18955;51.224;8.482;2023-05-20T05:50:48;10.40;78.20
32506;DHT22;18955;51.224;8.482;2023-05-20T05:53:16;10.40;78.20
32506;DHT22;18955;51.224;8.482;2023-05-20T05:55:46;10.40;78.20
32506;DHT22;18955;51.224;8.482;2023-05-20T05:58:13;10.40;78.20
32506;DHT22;18955;51.224;8.482;2023-05-20T06:00:39;10.40;78.20
32506;DHT22;18955;51.224;8.482;2023-05-20T06:03:05;10.40;78.20
32506;DHT22;18955;51.224;8.482;2023-05-20T06:05:35;10.40;78.20
32506;DHT22;18955;51.224;8.482;2023-05-20T06:08:02;10.40;78.10
32506;DHT22;18955;51.224;8.482;2023-05-20T06:10:29;10.40;78.20
32506;DHT22;18955;51.224;8.482;2023-05-20T06:12:56;10.40;78.10
32506;DHT22;18955;51.224;8.482;2023-05-20T06:15:22;10.40;78.10
32506;DHT22;18955;51.224;8.482;2023-05-20T06:17:48;10.40;78.20
32506;DHT22;18955;51.224;8.482;2023-05-20T06:20:15;10.40;78.20
32506;DHT22;18955;51.224;8.482;2023-05-20T06:22:42;10.40;78.20
32506;DHT22;18955;51.224;8.482;2023-05-20T06:25:09;10.40;78.30
32506;DHT22;18955;51.224;8.482;2023-05-20T06:27:36;10.40;78.20
32506;DHT22;18955;51.224;8.482;2023-05-20T06:30:03;10.40;78.40
32506;DHT22;18955;51.224;8.482;2023-05-20T06:32:30;10.40;78.30
32506;DHT22;18955;51.224;8.482;2023-05-20T06:34:57;10.40;78.20
32506;DHT22;18955;51.224;8.482;2023-05-20T06:37:23;10.40;78.20
32506;DHT22;18955;51.224;8.482;2023-05-20T06:39:51;10.40;78.30
32506;DHT22;18955;51.224;8.482;2023-05-20T06:42:19;10.40;78.30
32506;DHT22;18955;51.224;8.482;2023-05-20T06:44:54;10.40;78.30
32506;DHT22;18955;51.224;8.482;2023-05-20T06:47:31;10.40;78.30
32506;DHT22;18955;51.224;8.482;2023-05-20T06:49:57;10.40;78.30
32506;DHT22;18955;51.224;8.482;2023-05-20T06:52:24;10.40;78.40
32506;DHT22;18955;51.224;8.482;2023-05-20T06:54:51;10.40;78.50
32506;DHT22;18955;51.224;8.482;2023-05-20T06:57:17;10.40;78.40
32506;DHT22;18955;51.224;8.482;2023-05-20T06:59:44;10.40;78.40
32506;DHT22;18955;51.224;8.482;2023-05-20T07:02:10;10.40;78.30
32506;DHT22;18955;51.224;8.482;2023-05-20T07:04:37;10.50;78.40
32506;DHT22;18955;51.224;8.482;2023-05-20T07:07:03;10.50;78.40
32506;DHT22;18955;51.224;8.482;2023-05-20T07:09:31;10.50;78.40
32506;DHT22;18955;51.224;8.482;2023-05-20T07:11:57;10.50;78.50
32506;DHT22;18955;51.224;8.482;2023-05-20T07:14:23;10.50;78.50
32506;DHT22;18955;51.224;8.482;2023-05-20T07:16:50;10.50;78.50
32506;DHT22;18955;51.224;8.482;2023-05-20T07:19:16;10.50;78.60
32506;DHT22;18955;51.224;8.482;2023-05-20T07:21:42;10.50;78.60
32506;DHT22;18955;51.224;8.482;2023-05-20T07:24:27;10.50;78.40
32506;DHT22;18955;51.224;8.482;2023-05-20T07:26:53;10.50;78.60
32506;DHT22;18955;51.224;8.482;2023-05-20T07:29:20;10.50;78.50
32506;DHT22;18955;51.224;8.482;2023-05-20T07:31:46;10.50;78.50
32506;DHT22;18955;51.224;8.482;2023-05-20T07:34:12;10.50;78.50
32506;DHT22;18955;51.224;8.482;2023-05-20T07:36:40;10.50;78.50
32506;DHT22;18955;51.224;8.482;2023-05-20T07:39:06;10.50;78.50
32506;DHT22;18955;51.224;8.482;2023-05-20T07:41:35;10.50;78.50
32506;DHT22;18955;51.224;8.482;2023-05-20T07:44:02;10.50;78.50
32506;DHT22;18955;51.224;8.482;2023-05-20T07:46:30;10.50;78.50
32506;DHT22;18955;51.224;8.482;2023-05-20T07:48:56;10.50;78.60
32506;DHT22;18955;51.224;8.482;2023-05-20T07:51:22;10.50;78.60
32506;DHT22;18955;51.224;8.482;2023-05-20T07:53:49;10.50;78.60
32506;DHT22;18955;51.224;8.482;2023-05-20T07:56:15;10.50;78.50
32506;DHT22;18955;51.224;8.482;2023-05-20T07:58:42;10.50;78.50
32506;DHT22;18955;51.224;8.482;2023-05-20T08:01:09;10.60;78.50
32506;DHT22;18955;51.224;8.482;2023-05-20T08:03:36;10.60;78.50
32506;DHT22;18955;51.224;8.482;2023-05-20T08:06:10;10.60;78.50
32506;DHT22;18955;51.224;8.482;2023-05-20T08:08:36;10.60;78.50
32506;DHT22;18955;51.224;8.482;2023-05-20T08:11:10;10.60;78.60
32506;DHT22;18955;51.224;8.482;2023-05-20T08:13:38;10.60;78.60
32506;DHT22;18955;51.224;8.482;2023-05-20T08:16:04;10.60;78.60
32506;DHT22;18955;51.224;8.482;2023-05-20T08:18:31;10.60;78.70
32506;DHT22;18955;51.224;8.482;2023-05-20T08:20:58;10.70;78.60
32506;DHT22;18955;51.224;8.482;2023-05-20T08:23:25;10.70;78.60
32506;DHT22;18955;51.224;8.482;2023-05-20T08:25:52;10.70;78.70
32506;DHT22;18955;51.224;8.482;2023-05-20T08:28:20;10.70;78.50
32506;DHT22;18955;51.224;8.482;2023-05-20T08:30:47;10.70;78.60
32506;DHT22;18955;51.224;8.482;2023-05-20T08:33:14;10.70;78.50
32506;DHT22;18955;51.224;8.482;2023-05-20T08:35:40;10.70;78.50
32506;DHT22;18955;51.224;8.482;2023-05-20T08:38:07;10.80;78.70
32506;DHT22;18955;51.224;8.482;2023-05-20T08:40:36;10.80;78.60
32506;DHT22;18955;51.224;8.482;2023-05-20T08:43:03;10.80;78.60
32506;DHT22;18955;51.224;8.482;2023-05-20T08:45:32;10.80;78.60
32506;DHT22;18955;51.224;8.482;2023-05-20T08:48:04;10.80;78.60
32506;DHT22;18955;51.224;8.482;2023-05-20T08:50:31;10.90;78.60
32506;DHT22;18955;51.224;8.482;2023-05-20T08:52:57;10.90;78.50
32506;DHT22;18955;51.224;8.482;2023-05-20T08:55:25;10.90;78.50
32506;DHT22;18955;51.224;8.482;2023-05-20T08:57:55;10.90;78.50
32506;DHT22;18955;51.224;8.482;2023-05-20T09:00:23;10.90;78.60
32506;DHT22;18955;51.224;8.482;2023-05-20T09:02:55;10.90;78.50
32506;DHT22;18955;51.224;8.482;2023-05-20T09:05:21;10.90;78.60
32506;DHT22;18955;51.224;8.482;2023-05-20T09:07:48;11.00;78.60
32506;DHT22;18955;51.224;8.482;2023-05-20T09:10:15;11.00;78.60
32506;DHT22;18955;51.224;8.482;2023-05-20T09:12:41;11.00;78.50
32506;DHT22;18955;51.224;8.482;2023-05-20T09:15:08;11.00;78.50
32506;DHT22;18955;51.224;8.482;2023-05-20T09:17:34;11.00;78.40
32506;DHT22;18955;51.224;8.482;2023-05-20T09:20:06;11.00;78.50
32506;DHT22;18955;51.224;8.482;2023-05-20T09:22:33;11.10;78.60
32506;DHT22;18955;51.224;8.482;2023-05-20T09:25:00;11.10;78.70
32506;DHT22;18955;51.224;8.482;2023-05-20T09:27:27;11.10;78.70
32506;DHT22;18955;51.224;8.482;2023-05-20T09:29:53;11.10;78.70
32506;DHT22;18955;51.224;8.482;2023-05-20T09:32:20;11.10;78.70
32506;DHT22;18955;51.224;8.482;2023-05-20T09:34:49;11.10;78.70
32506;DHT22;18955;51.224;8.482;2023-05-20T09:37:20;11.10;78.60
32506;DHT22;18955;51.224;8.482;2023-05-20T09:40:06;11.20;78.60
32506;DHT22;18955;51.224;8.482;2023-05-20T09:42:58;11.20;78.60
32506;DHT22;18955;51.224;8.482;2023-05-20T09:45:26;11.20;78.70
32506;DHT22;18955;51.224;8.482;2023-05-20T09:47:53;11.20;78.70
32506;DHT22;18955;51.224;8.482;2023-05-20T09:50:21;11.30;79.00
32506;DHT22;18955;51.224;8.482;2023-05-20T09:52:50;11.30;78.90
32506;DHT22;18955;51.224;8.482;2023-05-20T09:55:19;11.30;78.80
32506;DHT22;18955;51.224;8.482;2023-05-20T09:57:46;11.30;78.80
32506;DHT22;18955;51.224;8.482;2023-05-20T10:00:13;11.40;79.00
32506;DHT22;18955;51.224;8.482;2023-05-20T10:02:50;11.30;78.70
32506;DHT22;18955;51.224;8.482;2023-05-20T10:05:26;11.40;78.80
32506;DHT22;18955;51.224;8.482;2023-05-20T10:13:41;11.40;79.10
32506;DHT22;18955;51.224;8.482;2023-05-20T10:21:36;11.40;79.60
32506;DHT22;18955;51.224;8.482;2023-05-20T10:24:06;11.50;79.10
32506;DHT22;18955;51.224;8.482;2023-05-20T10:26:37;11.50;79.10
32506;DHT22;18955;51.224;8.482;2023-05-20T10:29:17;11.50;79.10
32506;DHT22;18955;51.224;8.482;2023-05-20T10:31:44;11.50;79.10
32506;DHT22;18955;51.224;8.482;2023-05-20T10:34:14;11.50;79.10
32506;DHT22;18955;51.224;8.482;2023-05-20T10:39:31;11.60;79.10
32506;DHT22;18955;51.224;8.482;2023-05-20T10:42:10;11.60;79.20
32506;DHT22;18955;51.224;8.482;2023-05-20T10:44:44;11.60;79.20
32506;DHT22;18955;51.224;8.482;2023-05-20T10:47:11;11.70;79.30
32506;DHT22;18955;51.224;8.482;2023-05-20T10:49:45;11.70;79.40
32506;DHT22;18955;51.224;8.482;2023-05-20T10:52:16;11.70;79.20
32506;DHT22;18955;51.224;8.482;2023-05-20T10:55:03;11.70;79.20
32506;DHT22;18955;51.224;8.482;2023-05-20T10:57:30;11.70;79.20
32506;DHT22;18955;51.224;8.482;2023-05-20T10:59:57;11.70;79.30
32506;DHT22;18955;51.224;8.482;2023-05-20T11:02:25;11.70;79.40
32506;DHT22;18955;51.224;8.482;2023-05-20T11:04:55;11.80;79.40
32506;DHT22;18955;51.224;8.482;2023-05-20T11:07:27;11.80;79.50
32506;DHT22;18955;51.224;8.482;2023-05-20T11:09:54;11.80;79.30
32506;DHT22;18955;51.224;8.482;2023-05-20T11:12:22;11.80;79.90
32506;DHT22;18955;51.224;8.482;2023-05-20T11:14:49;11.80;79.30
32506;DHT22;18955;51.224;8.482;2023-05-20T11:17:17;11.90;79.20
32506;DHT22;18955;51.224;8.482;2023-05-20T11:19:45;11.90;79.20
32506;DHT22;18955;51.224;8.482;2023-05-20T11:22:11;11.90;79.20
32506;DHT22;18955;51.224;8.482;2023-05-20T11:24:37;11.90;79.80
32506;DHT22;18955;51.224;8.482;2023-05-20T11:27:04;12.00;79.30
32506;DHT22;18955;51.224;8.482;2023-05-20T11:29:31;12.00;79.30
32506;DHT22;18955;51.224;8.482;2023-05-20T11:31:58;12.00;80.00
32506;DHT22;18955;51.224;8.482;2023-05-20T11:34:25;12.00;79.60
32506;DHT22;18955;51.224;8.482;2023-05-20T11:36:57;12.00;79.50
32506;DHT22;18955;51.224;8.482;2023-05-20T11:39:24;12.00;79.50
32506;DHT22;18955;51.224;8.482;2023-05-20T11:41:52;12.00;79.30
32506;DHT22;18955;51.224;8.482;2023-05-20T11:44:19;12.10;79.50
32506;DHT22;18955;51.224;8.482;2023-05-20T11:46:45;12.10;79.50
32506;DHT22;18955;51.224;8.482;2023-05-20T11:49:13;12.10;79.60
32506;DHT22;18955;51.224;8.482;2023-05-20T11:51:39;12.10;79.50
32506;DHT22;18955;51.224;8.482;2023-05-20T11:54:06;12.10;79.60
32506;DHT22;18955;51.224;8.482;2023-05-20T11:56:34;12.10;79.50
32506;DHT22;18955;51.224;8.482;2023-05-20T11:59:04;12.10;79.70
32506;DHT22;18955;51.224;8.482;2023-05-20T12:01:34;12.20;79.60
32506;DHT22;18955;51.224;8.482;2023-05-20T12:04:06;12.20;79.70
32506;DHT22;18955;51.224;8.482;2023-05-20T12:06:33;12.20;79.60
32506;DHT22;18955;51.224;8.482;2023-05-20T12:09:01;12.20;79.60
32506;DHT22;18955;51.224;8.482;2023-05-20T12:11:37;12.20;79.70
32506;DHT22;18955;51.224;8.482;2023-05-20T12:14:06;12.30;79.80
32506;DHT22;18955;51.224;8.482;2023-05-20T12:16:33;12.30;79.70
32506;DHT22;18955;51.224;8.482;2023-05-20T12:19:00;12.30;79.70
32506;DHT22;18955;51.224;8.482;2023-05-20T12:21:27;12.30;79.70
32506;DHT22;18955;51.224;8.482;2023-05-20T12:23:54;12.30;80.20
32506;DHT22;18955;51.224;8.482;2023-05-20T12:26:23;12.30;79.70
32506;DHT22;18955;51.224;8.482;2023-05-20T12:28:49;12.30;79.70
32506;DHT22;18955;51.224;8.482;2023-05-20T12:31:16;12.30;79.80
32506;DHT22;18955;51.224;8.482;2023-05-20T12:33:42;12.30;79.80
32506;DHT22;18955;51.224;8.482;2023-05-20T12:36:08;12.40;79.80
32506;DHT22;18955;51.224;8.482;2023-05-20T12:38:34;12.40;79.80
32506;DHT22;18955;51.224;8.482;2023-05-20T12:41:01;12.40;79.90
32506;DHT22;18955;51.224;8.482;2023-05-20T12:43:27;12.40;79.90
32506;DHT22;18955;51.224;8.482;2023-05-20T12:45:53;12.40;79.80
32506;DHT22;18955;51.224;8.482;2023-05-20T12:48:20;12.40;79.80
32506;DHT22;18955;51.224;8.482;2023-05-20T12:50:46;12.40;79.80
32506;DHT22;18955;51.224;8.482;2023-05-20T12:53:12;12.50;79.80
32506;DHT22;18955;51.224;8.482;2023-05-20T12:55:38;12.40;79.70
32506;DHT22;18955;51.224;8.482;2023-05-20T12:58:05;12.50;79.80
32506;DHT22;18955;51.224;8.482;2023-05-20T13:00:34;12.50;79.80
32506;DHT22;18955;51.224;8.482;2023-05-20T13:03:00;12.50;79.80
32506;DHT22;18955;51.224;8.482;2023-05-20T13:05:26;12.50;79.90
32506;DHT22;18955;51.224;8.482;2023-05-20T13:07:53;12.50;79.90
32506;DHT22;18955;51.224;8.482;2023-05-20T13:10:19;12.50;79.90
32506;DHT22;18955;51.224;8.482;2023-05-20T13:12:45;12.50;79.90
32506;DHT22;18955;51.224;8.482;2023-05-20T13:15:12;12.50;79.90
32506;DHT22;18955;51.224;8.482;2023-05-20T13:17:40;12.60;80.00
32506;DHT22;18955;51.224;8.482;2023-05-20T13:20:07;12.60;80.00
32506;DHT22;18955;51.224;8.482;2023-05-20T13:22:34;12.60;80.00
32506;DHT22;18955;51.224;8.482;2023-05-20T13:25:00;12.50;79.80
32506;DHT22;18955;51.224;8.482;2023-05-20T13:27:26;12.60;79.90
32506;DHT22;18955;51.224;8.482;2023-05-20T13:29:53;12.60;79.90
32506;DHT22;18955;51.224;8.482;2023-05-20T13:32:19;12.60;80.00
32506;DHT22;18955;51.224;8.482;2023-05-20T13:34:45;12.60;80.00
32506;DHT22;18955;51.224;8.482;2023-05-20T13:37:11;12.60;80.00
32506;DHT22;18955;51.224;8.482;2023-05-20T13:39:38;12.60;80.00
32506;DHT22;18955;51.224;8.482;2023-05-20T13:42:04;12.60;80.00
32506;DHT22;18955;51.224;8.482;2023-05-20T13:44:30;12.60;80.00
32506;DHT22;18955;51.224;8.482;2023-05-20T13:46:56;12.70;80.00
32506;DHT22;18955;51.224;8.482;2023-05-20T13:49:23;12.70;80.00
32506;DHT22;18955;51.224;8.482;2023-05-20T13:51:50;12.70;80.00
32506;DHT22;18955;51.224;8.482;2023-05-20T13:54:16;12.70;80.00
32506;DHT22;18955;51.224;8.482;2023-05-20T13:56:42;12.80;80.00
32506;DHT22;18955;51.224;8.482;2023-05-20T13:59:09;12.70;80.00
32506;DHT22;18955;51.224;8.482;2023-05-20T14:01:35;12.70;80.10
32506;DHT22;18955;51.224;8.482;2023-05-20T14:04:01;12.70;80.00
32506;DHT22;18955;51.224;8.482;2023-05-20T14:06:27;12.70;80.00
32506;DHT22;18955;51.224;8.482;2023-05-20T14:08:55;12.70;80.20
32506;DHT22;18955;51.224;8.482;2023-05-20T14:11:21;12.80;80.20
32506;DHT22;18955;51.224;8.482;2023-05-20T14:13:48;12.70;80.10
32506;DHT22;18955;51.224;8.482;2023-05-20T14:16:14;12.80;80.70
32506;DHT22;18955;51.224;8.482;2023-05-20T14:18:40;12.80;80.10
32506;DHT22;18955;51.224;8.482;2023-05-20T14:21:06;12.80;80.10
32506;DHT22;18955;51.224;8.482;2023-05-20T14:23:33;12.80;80.20
32506;DHT22;18955;51.224;8.482;2023-05-20T14:25:59;12.80;80.20
32506;DHT22;18955;51.224;8.482;2023-05-20T14:28:25;12.80;80.10
32506;DHT22;18955;51.224;8.482;2023-05-20T14:30:51;12.80;80.10
32506;DHT22;18955;51.224;8.482;2023-05-20T14:33:19;12.80;80.10
32506;DHT22;18955;51.224;8.482;2023-05-20T14:35:45;12.90;80.20
32506;DHT22;18955;51.224;8.482;2023-05-20T14:38:11;12.80;80.20
32506;DHT22;18955;51.224;8.482;2023-05-20T14:40:38;12.80;80.20
32506;DHT22;18955;51.224;8.482;2023-05-20T14:43:04;12.90;80.30
32506;DHT22;18955;51.224;8.482;2023-05-20T14:45:30;12.90;80.30
32506;DHT22;18955;51.224;8.482;2023-05-20T14:47:56;12.90;80.30
32506;DHT22;18955;51.224;8.482;2023-05-20T14:50:22;12.90;80.30
32506;DHT22;18955;51.224;8.482;2023-05-20T14:52:49;12.90;80.40
32506;DHT22;18955;51.224;8.482;2023-05-20T14:55:15;12.90;80.30
32506;DHT22;18955;51.224;8.482;2023-05-20T14:57:41;12.90;80.30
32506;DHT22;18955;51.224;8.482;2023-05-20T15:00:08;12.90;80.40
32506;DHT22;18955;51.224;8.482;2023-05-20T15:02:35;12.90;80.50
32506;DHT22;18955;51.224;8.482;2023-05-20T15:05:01;12.90;80.40
32506;DHT22;18955;51.224;8.482;2023-05-20T15:07:28;12.90;80.40
32506;DHT22;18955;51.224;8.482;2023-05-20T15:09:54;13.00;80.40
32506;DHT22;18955;51.224;8.482;2023-05-20T15:12:20;12.90;80.40
32506;DHT22;18955;51.224;8.482;2023-05-20T15:14:47;12.90;80.40
32506;DHT22;18955;51.224;8.482;2023-05-20T15:17:13;13.00;80.50
32506;DHT22;18955;51.224;8.482;2023-05-20T15:19:39;12.90;80.40
32506;DHT22;18955;51.224;8.482;2023-05-20T15:22:06;12.90;80.50
32506;DHT22;18955;51.224;8.482;2023-05-20T15:24:32;12.90;80.60
32506;DHT22;18955;51.224;8.482;2023-05-20T15:26:58;13.00;80.60
32506;DHT22;18955;51.224;8.482;2023-05-20T15:29:25;13.00;80.60
32506;DHT22;18955;51.224;8.482;2023-05-20T15:31:51;13.00;80.50
32506;DHT22;18955;51.224;8.482;2023-05-20T15:34:17;13.00;80.50
32506;DHT22;18955;51.224;8.482;2023-05-20T15:36:43;13.00;80.50
32506;DHT22;18955;51.224;8.482;2023-05-20T15:39:10;13.00;80.50
32506;DHT22;18955;51.224;8.482;2023-05-20T15:41:36;12.90;80.50
32506;DHT22;18955;51.224;8.482;2023-05-20T15:44:04;13.00;80.60
32506;DHT22;18955;51.224;8.482;2023-05-20T15:46:30;12.90;80.60